Detall de PIREP

Printer-friendly versionPDF version

[2011/03/21 16:47:00]
Flight IATA:CT3228
Pilot Number:037
Company ICAO:CAT
Aircraft Type:B763/F
PAX:107
Departing Airport: LEPA
Destination Airport: LMML
Alternate Airport:HLLT
Online: VATSIM
Route:MORSS UM603 ALG UM731 SODIO UM732 GZO DCT

Flight Level:F410
No Slew and time accel
No pause
Crash detect
Detect pilot in Cockpit between each 30 and 45 minutes
16:47 Zero fuel Weight: 273711 Lbs, Fuel Weight: 43922 Lbs
16:47 VATSIM:LEPA 211630Z 05011KT 020V080 9999 FEW025 15/04 Q1026 NOSIG
16:47 VATSIM:LMML 211615Z 04004KT 350V070 9999 SCT025 SCT090 13/08 Q1022 NOSIG
17:03 Parking Brakes off
17:12 Take-off
17:12 Take off Weight: 316084 Lbs
17:12 Wind: 055º @ 011 Knots Heading: 058º
17:12 POS N39º 32´ 53´´ E002º 44´ 46´´
17:12 Gear Up: 171 Knots
17:12 Flaps:3 at 171 Knots
17:13 Flaps:2 at 194 Knots
17:13 Flaps:1 at 207 Knots
17:14 Flaps:0 at 220 Knots
17:27 Wind:040º@056 Knots Heading: 070º Ground Speed: 433 Knots Altitude 31348 ft
17:32 TOC
17:32 Fuel Weight: 34643 Lb
17:42 Wind:057º@027 Knots Heading: 073º Ground Speed: 461 Knots Altitude 41358 ft
17:57 Wind:058º@029 Knots Heading: 144º Ground Speed: 483 Knots Altitude 41325 ft
18:12 Wind:049º@039 Knots Heading: 123º Ground Speed: 474 Knots Altitude 41305 ft
18:27 Wind:001º@027 Knots Heading: 126º Ground Speed: 501 Knots Altitude 41256 ft
18:31 TOD
18:31 Fuel Weight: 23603 Lb
18:42 Wind:023º@007 Knots Heading: 129º Ground Speed: 285 Knots Altitude 7906 ft
18:44 Flaps:1 at 231 Knots
18:44 Flaps:2 at 213 Knots
18:44 Gear Down: 213 Knots
18:45 Flaps:3 at 196 Knots
18:45 Flaps:4 at 169 Knots
18:45 Flaps:5 at 169 Knots
18:45 Flaps:6 at 159 Knots
18:47 TouchDown:Rate -322 ft/min Speed: 106 Knots
18:48 VATSIM:LMML 211815Z VRB01KT 9999 SCT024 SCT042 11/09 Q1023 NOSIG
18:48 Land
18:48 Wind:010º@003 Knots
18:48 Heading: 137º
18:48 Flight Duration: 01:36
18:48 Landing Weight: 295774 Lbs
18:48 POS N35º 51´ 02´´ E014º 29´ 16´´
18:50 Parking brakes on
18:50 Block to Block Duration: 01:47
18:50 Final Fuel: 21728 Lbls
18:50 Spent Fuel: 22193 Lbls
18:50 Flight Length: 553 NM
18:50 TOD Land Length: 93 NM

Exportar CSV

Powered by Drupal - Modified by Danger4k